createdAt,value
2018-02-21T00:00:04.980Z,0
2018-02-21T00:05:02.702Z,0
2018-02-21T00:10:03.259Z,0
2018-02-21T00:15:02.748Z,0
2018-02-21T00:20:03.219Z,0
2018-02-21T00:25:02.657Z,0
2018-02-21T00:30:03.181Z,0
2018-02-21T00:35:02.681Z,0
2018-02-21T00:40:03.172Z,0
2018-02-21T00:45:03.044Z,0
2018-02-21T00:50:02.501Z,0
2018-02-21T00:55:02.947Z,0
2018-02-21T01:00:03.385Z,0
2018-02-21T01:05:02.493Z,0
2018-02-21T01:10:03.112Z,0
2018-02-21T01:15:02.634Z,0
2018-02-21T01:20:03.172Z,0
2018-02-21T01:25:02.705Z,0
2018-02-21T01:30:03.161Z,0
2018-02-21T01:35:02.707Z,0
2018-02-21T01:40:03.170Z,0
2018-02-21T01:45:02.510Z,0
2018-02-21T01:50:03.030Z,0
2018-02-21T01:55:03.445Z,0
2018-02-21T02:00:02.863Z,1
2018-02-21T02:05:03.286Z,1
2018-02-21T02:10:02.843Z,1
2018-02-21T02:15:03.333Z,1
2018-02-21T02:20:02.850Z,1
2018-02-21T02:25:03.359Z,1
2018-02-21T02:30:02.816Z,0
2018-02-21T02:35:03.413Z,0
2018-02-21T02:40:03.056Z,0
2018-02-21T02:45:02.660Z,0
2018-02-21T02:50:03.148Z,1
2018-02-21T02:55:02.634Z,0
2018-02-21T03:00:03.232Z,0
2018-02-21T03:05:02.673Z,1
2018-02-21T03:10:03.148Z,1
2018-02-21T03:15:02.606Z,0
2018-02-21T03:20:03.236Z,0
2018-02-21T03:25:02.702Z,0
2018-02-21T03:30:03.136Z,1
2018-02-21T03:35:02.672Z,1
2018-02-21T03:40:03.192Z,0
2018-02-21T03:45:02.659Z,1
2018-02-21T03:50:03.156Z,1
2018-02-21T03:55:02.627Z,1
2018-02-21T04:00:03.143Z,0
2018-02-21T04:05:02.625Z,0
2018-02-21T04:10:03.147Z,0
2018-02-21T04:15:02.549Z,1
2018-02-21T04:20:03.046Z,1
2018-02-21T04:25:02.483Z,0
2018-02-21T04:30:02.906Z,0
2018-02-21T04:35:03.421Z,1
2018-02-21T04:40:02.983Z,0
2018-02-21T04:45:02.464Z,0
2018-02-21T04:50:02.987Z,1
2018-02-21T04:55:02.491Z,1
2018-02-21T05:00:03.279Z,1
2018-02-21T05:05:02.773Z,1
2018-02-21T05:10:03.299Z,1
2018-02-21T05:15:02.684Z,1
2018-02-21T05:20:03.153Z,1
2018-02-21T05:25:02.617Z,1
2018-02-21T05:30:02.880Z,1
2018-02-21T05:35:03.449Z,1
2018-02-21T05:40:02.959Z,1
2018-02-21T05:45:03.392Z,1
2018-02-21T05:50:02.846Z,1
2018-02-21T05:55:03.335Z,1
2018-02-21T06:00:02.744Z,1
2018-02-21T06:05:03.218Z,2
2018-02-21T06:10:02.738Z,4
2018-02-21T06:15:03.154Z,10
2018-02-21T06:20:02.634Z,26
2018-02-21T06:25:03.194Z,39
2018-02-21T06:30:02.818Z,55
2018-02-21T06:35:03.335Z,90
2018-02-21T06:40:02.822Z,133
2018-02-21T06:45:03.285Z,262
2018-02-21T06:50:02.685Z,345
2018-02-21T06:55:03.143Z,475
2018-02-21T07:00:02.924Z,606
2018-02-21T07:05:03.349Z,830
2018-02-21T07:10:02.944Z,969
2018-02-21T07:15:03.421Z,1000
2018-02-21T07:20:02.913Z,1000
2018-02-21T07:25:03.404Z,1000
2018-02-21T07:30:03.196Z,1000
2018-02-21T07:35:02.721Z,1000
2018-02-21T07:40:03.280Z,2000
2018-02-21T07:45:02.750Z,2000
2018-02-21T07:50:03.211Z,2000
2018-02-21T07:55:02.663Z,2000
2018-02-21T08:00:03.162Z,2000
2018-02-21T08:05:02.701Z,2000
2018-02-21T08:10:02.515Z,3000
2018-02-21T08:15:02.975Z,3000
2018-02-21T08:20:03.437Z,3000
2018-02-21T08:25:02.843Z,15000
2018-02-21T08:30:03.250Z,15000
2018-02-21T08:35:02.746Z,17000
2018-02-21T08:40:03.254Z,18000
2018-02-21T08:45:02.710Z,19000
2018-02-21T08:50:03.317Z,19000
2018-02-21T08:55:02.731Z,20000
2018-02-21T09:00:03.250Z,21000
2018-02-21T09:05:02.766Z,21000
2018-02-21T09:10:03.356Z,23000
2018-02-21T09:15:02.857Z,24000
2018-02-21T09:20:03.378Z,24000
2018-02-21T09:25:02.926Z,24000
2018-02-21T09:30:03.362Z,25000
2018-02-21T09:35:02.802Z,27000
2018-02-21T09:40:03.256Z,27000
2018-02-21T09:45:02.708Z,28000
2018-02-21T09:50:03.231Z,29000
2018-02-21T09:55:02.754Z,30000
2018-02-21T10:00:03.185Z,30000
2018-02-21T10:05:02.606Z,31000
2018-02-21T10:10:03.198Z,31000
2018-02-21T10:15:02.647Z,31000
2018-02-21T10:20:03.221Z,32000
2018-02-21T10:25:02.610Z,33000
2018-02-21T10:30:03.131Z,33000
2018-02-21T10:35:02.627Z,34000
2018-02-21T10:40:03.172Z,34000
2018-02-21T10:45:02.657Z,34000
2018-02-21T10:50:03.153Z,34000
2018-02-21T10:55:02.616Z,34000
2018-02-21T11:00:03.095Z,33000
2018-02-21T11:05:02.553Z,33000
2018-02-21T11:10:03.123Z,32000
2018-02-21T11:15:02.598Z,32000
2018-02-21T11:20:03.117Z,33000
2018-02-21T11:25:02.669Z,35000
2018-02-21T11:30:03.099Z,35000
2018-02-21T11:35:02.676Z,35000
2018-02-21T11:40:03.264Z,35000
2018-02-21T11:45:02.732Z,35000
2018-02-21T11:50:03.233Z,30000
2018-02-21T11:55:02.734Z,27000
2018-02-21T12:00:03.210Z,27000
2018-02-21T12:05:02.716Z,15000
2018-02-21T12:10:03.215Z,24000
2018-02-21T12:15:02.712Z,22000
2018-02-21T12:20:03.251Z,18000
2018-02-21T12:25:02.721Z,16000
2018-02-21T12:30:03.223Z,24000
2018-02-21T12:35:02.737Z,18000
2018-02-21T12:40:03.306Z,27000
2018-02-21T12:45:02.731Z,27000
2018-02-21T12:50:03.184Z,32000
2018-02-21T12:55:02.623Z,31000
2018-02-21T13:00:03.096Z,28000
2018-02-21T13:05:02.600Z,28000
2018-02-21T13:10:03.233Z,28000
2018-02-21T13:15:02.688Z,22000
2018-02-21T13:20:03.211Z,25000
2018-02-21T13:25:02.613Z,27000
2018-02-21T13:30:03.067Z,26000
2018-02-21T13:35:02.556Z,25000
2018-02-21T13:40:03.081Z,25000
2018-02-21T13:45:02.493Z,26000
2018-02-21T13:50:03.053Z,23000
2018-02-21T13:55:02.489Z,15000
2018-02-21T14:00:02.930Z,22000
2018-02-21T14:05:03.388Z,19000
2018-02-21T14:10:02.952Z,15000
2018-02-21T14:15:02.517Z,15000
2018-02-21T14:20:03.037Z,18000
2018-02-21T14:25:02.644Z,19000
2018-02-21T14:30:03.163Z,19000
2018-02-21T14:35:02.641Z,18000
2018-02-21T14:40:03.148Z,10000
2018-02-21T14:45:02.602Z,10000
2018-02-21T14:50:03.137Z,14000
2018-02-21T14:55:02.625Z,11000
2018-02-21T15:00:03.159Z,13000
2018-02-21T15:05:02.686Z,12000
2018-02-21T15:10:03.307Z,13000
2018-02-21T15:15:02.744Z,10000
2018-02-21T15:20:03.146Z,9000
2018-02-21T15:25:02.640Z,9000
2018-02-21T15:30:03.052Z,10000
2018-02-21T15:35:02.531Z,8000
2018-02-21T15:40:03.102Z,6000
2018-02-21T15:45:02.541Z,5000
2018-02-21T15:50:03.086Z,8000
2018-02-21T15:55:02.558Z,8000
2018-02-21T16:00:03.195Z,5000
2018-02-21T16:05:02.727Z,4000
2018-02-21T16:10:03.250Z,4000
2018-02-21T16:15:02.691Z,1000
2018-02-21T16:20:03.248Z,1000
2018-02-21T16:25:02.737Z,1000
2018-02-21T16:30:03.231Z,1000
2018-02-21T16:35:02.692Z,946
2018-02-21T16:40:03.157Z,828
2018-02-21T16:45:02.706Z,566
2018-02-21T16:50:03.184Z,566
2018-02-21T16:55:02.605Z,328
2018-02-21T17:00:03.041Z,197
2018-02-21T17:05:02.581Z,106
2018-02-21T17:10:03.108Z,63
2018-02-21T17:15:02.692Z,49
2018-02-21T17:20:03.152Z,39
2018-02-21T17:25:02.618Z,14
2018-02-21T17:30:03.112Z,7
2018-02-21T17:35:02.524Z,3
2018-02-21T17:40:03.090Z,2
2018-02-21T17:45:02.602Z,1
2018-02-21T17:50:03.186Z,1
2018-02-21T17:55:02.631Z,1
2018-02-21T18:00:03.140Z,0
2018-02-21T18:05:02.672Z,1
2018-02-21T18:10:03.254Z,1
2018-02-21T18:15:03.031Z,1
2018-02-21T18:20:02.481Z,0
2018-02-21T18:25:02.925Z,0
2018-02-21T18:30:03.462Z,0
2018-02-21T18:35:02.945Z,0
2018-02-21T18:40:03.439Z,0
2018-02-21T18:45:02.905Z,0
2018-02-21T18:50:03.441Z,0
2018-02-21T18:55:02.911Z,0
2018-02-21T19:00:02.475Z,0
2018-02-21T19:05:02.936Z,0
2018-02-21T19:10:03.344Z,0
2018-02-21T19:15:02.790Z,0
2018-02-21T19:20:03.355Z,0
2018-02-21T19:25:02.782Z,0
2018-02-21T19:30:03.369Z,0
2018-02-21T19:35:02.882Z,0
2018-02-21T19:40:03.474Z,0
2018-02-21T19:45:03.003Z,0
2018-02-21T19:50:02.533Z,0
2018-02-21T19:55:04.184Z,0
2018-02-21T20:00:02.596Z,0
2018-02-21T20:05:03.108Z,0
2018-02-21T20:10:02.930Z,0
2018-02-21T20:15:03.397Z,0
2018-02-21T20:20:02.981Z,0
2018-02-21T20:25:02.723Z,0
2018-02-21T20:30:03.251Z,0
2018-02-21T20:35:02.816Z,0
2018-02-21T20:40:03.405Z,0
2018-02-21T20:45:03.163Z,1
2018-02-21T20:50:02.708Z,0
2018-02-21T20:55:03.176Z,0
2018-02-21T21:00:02.677Z,0
2018-02-21T21:05:03.305Z,0
2018-02-21T21:10:02.884Z,0
2018-02-21T21:15:03.347Z,0
2018-02-21T21:20:02.801Z,0
2018-02-21T21:25:03.321Z,0
2018-02-21T21:30:02.785Z,0
2018-02-21T21:35:03.423Z,0
2018-02-21T21:40:02.972Z,0
2018-02-21T21:45:02.460Z,0
2018-02-21T21:50:03.039Z,0
2018-02-21T21:55:02.842Z,0
2018-02-21T22:00:02.482Z,0
2018-02-21T22:05:03.018Z,0
2018-02-21T22:10:02.477Z,0
2018-02-21T22:15:02.942Z,0
2018-02-21T22:20:03.347Z,0
2018-02-21T22:25:02.861Z,0
2018-02-21T22:30:03.454Z,0
2018-02-21T22:35:02.892Z,0
2018-02-21T22:40:03.438Z,0
2018-02-21T22:45:03.180Z,0
2018-02-21T22:50:02.630Z,0
2018-02-21T22:55:03.090Z,0
2018-02-21T23:00:02.542Z,0
2018-02-21T23:05:02.989Z,0
2018-02-21T23:10:02.494Z,0
2018-02-21T23:15:02.971Z,0
2018-02-21T23:20:02.491Z,0
2018-02-21T23:25:02.961Z,0
2018-02-21T23:30:03.459Z,0
2018-02-21T23:35:02.938Z,0
2018-02-21T23:40:03.450Z,0
2018-02-21T23:45:02.830Z,0
2018-02-21T23:50:03.291Z,0
2018-02-21T23:55:02.713Z,0
